sensor_id;sensor_type;location;lat;lon;timestamp;P1;durP1;ratioP1;P2;durP2;ratioP2
19456;SDS011;9867;48.094;11.478;2023-08-20T00:00:36;6.70;;;3.83;;
19456;SDS011;9867;48.094;11.478;2023-08-20T00:03:08;6.87;;;4.03;;
19456;SDS011;9867;48.094;11.478;2023-08-20T00:05:40;8.23;;;4.00;;
19456;SDS011;9867;48.094;11.478;2023-08-20T00:08:09;4.53;;;3.77;;
19456;SDS011;9867;48.094;11.478;2023-08-20T00:10:37;8.33;;;4.27;;
19456;SDS011;9867;48.094;11.478;2023-08-20T00:13:05;7.27;;;4.10;;
19456;SDS011;9867;48.094;11.478;2023-08-20T00:15:33;5.60;;;3.80;;
19456;SDS011;9867;48.094;11.478;2023-08-20T00:18:01;5.27;;;3.77;;
19456;SDS011;9867;48.094;11.478;2023-08-20T00:20:30;5.90;;;4.07;;
19456;SDS011;9867;48.094;11.478;2023-08-20T00:23:01;7.20;;;4.03;;
19456;SDS011;9867;48.094;11.478;2023-08-20T00:25:30;5.77;;;3.90;;
19456;SDS011;9867;48.094;11.478;2023-08-20T00:27:58;15.47;;;4.20;;
19456;SDS011;9867;48.094;11.478;2023-08-20T00:30:26;6.07;;;4.10;;
19456;SDS011;9867;48.094;11.478;2023-08-20T00:32:54;6.10;;;4.00;;
19456;SDS011;9867;48.094;11.478;2023-08-20T00:35:22;7.60;;;4.10;;
19456;SDS011;9867;48.094;11.478;2023-08-20T00:37:51;7.30;;;3.90;;
19456;SDS011;9867;48.094;11.478;2023-08-20T00:40:20;5.93;;;3.90;;
19456;SDS011;9867;48.094;11.478;2023-08-20T00:42:48;6.37;;;3.80;;
19456;SDS011;9867;48.094;11.478;2023-08-20T00:45:16;8.13;;;4.17;;
19456;SDS011;9867;48.094;11.478;2023-08-20T00:47:44;9.00;;;3.70;;
19456;SDS011;9867;48.094;11.478;2023-08-20T00:50:13;6.23;;;4.10;;
19456;SDS011;9867;48.094;11.478;2023-08-20T00:52:41;7.23;;;4.03;;
19456;SDS011;9867;48.094;11.478;2023-08-20T00:55:10;4.97;;;3.90;;
19456;SDS011;9867;48.094;11.478;2023-08-20T00:57:42;5.33;;;3.70;;
19456;SDS011;9867;48.094;11.478;2023-08-20T01:00:10;5.53;;;3.73;;
19456;SDS011;9867;48.094;11.478;2023-08-20T01:02:39;5.27;;;3.90;;
19456;SDS011;9867;48.094;11.478;2023-08-20T01:05:10;6.20;;;3.57;;
19456;SDS011;9867;48.094;11.478;2023-08-20T01:07:43;6.50;;;3.47;;
19456;SDS011;9867;48.094;11.478;2023-08-20T01:10:25;4.83;;;3.60;;
19456;SDS011;9867;48.094;11.478;2023-08-20T01:13:03;5.70;;;4.00;;
19456;SDS011;9867;48.094;11.478;2023-08-20T01:15:32;4.87;;;3.80;;
19456;SDS011;9867;48.094;11.478;2023-08-20T01:18:00;4.23;;;3.53;;
19456;SDS011;9867;48.094;11.478;2023-08-20T01:20:30;5.97;;;3.93;;
19456;SDS011;9867;48.094;11.478;2023-08-20T01:26:07;5.13;;;3.90;;
19456;SDS011;9867;48.094;11.478;2023-08-20T01:28:44;5.50;;;3.90;;
19456;SDS011;9867;48.094;11.478;2023-08-20T01:31:13;7.20;;;3.60;;
19456;SDS011;9867;48.094;11.478;2023-08-20T01:33:43;7.33;;;3.90;;
19456;SDS011;9867;48.094;11.478;2023-08-20T01:36:12;6.23;;;3.90;;
19456;SDS011;9867;48.094;11.478;2023-08-20T01:38:40;6.07;;;3.87;;
19456;SDS011;9867;48.094;11.478;2023-08-20T01:41:08;6.33;;;3.70;;
19456;SDS011;9867;48.094;11.478;2023-08-20T01:43:36;5.67;;;3.80;;
19456;SDS011;9867;48.094;11.478;2023-08-20T01:46:05;6.00;;;3.90;;
19456;SDS011;9867;48.094;11.478;2023-08-20T01:48:35;8.33;;;4.07;;
19456;SDS011;9867;48.094;11.478;2023-08-20T01:51:04;4.87;;;3.90;;
19456;SDS011;9867;48.094;11.478;2023-08-20T01:53:32;7.43;;;3.77;;
19456;SDS011;9867;48.094;11.478;2023-08-20T01:56:00;7.30;;;4.10;;
19456;SDS011;9867;48.094;11.478;2023-08-20T01:58:28;7.70;;;3.90;;
19456;SDS011;9867;48.094;11.478;2023-08-20T02:00:57;5.73;;;3.50;;
19456;SDS011;9867;48.094;11.478;2023-08-20T02:03:26;6.07;;;3.80;;
19456;SDS011;9867;48.094;11.478;2023-08-20T02:05:55;7.00;;;4.10;;
19456;SDS011;9867;48.094;11.478;2023-08-20T02:08:23;6.07;;;4.00;;
19456;SDS011;9867;48.094;11.478;2023-08-20T02:10:58;7.20;;;3.60;;
19456;SDS011;9867;48.094;11.478;2023-08-20T02:13:27;8.20;;;3.73;;
19456;SDS011;9867;48.094;11.478;2023-08-20T02:15:59;6.83;;;3.67;;
19456;SDS011;9867;48.094;11.478;2023-08-20T02:18:30;7.40;;;4.00;;
19456;SDS011;9867;48.094;11.478;2023-08-20T02:20:58;5.07;;;4.00;;
19456;SDS011;9867;48.094;11.478;2023-08-20T02:23:26;11.87;;;4.00;;
19456;SDS011;9867;48.094;11.478;2023-08-20T02:25:54;7.03;;;3.60;;
19456;SDS011;9867;48.094;11.478;2023-08-20T02:28:22;5.63;;;3.60;;
19456;SDS011;9867;48.094;11.478;2023-08-20T02:30:50;7.63;;;4.10;;
19456;SDS011;9867;48.094;11.478;2023-08-20T02:33:18;6.23;;;3.70;;
19456;SDS011;9867;48.094;11.478;2023-08-20T02:35:48;7.73;;;3.87;;
19456;SDS011;9867;48.094;11.478;2023-08-20T02:38:16;7.90;;;3.73;;
19456;SDS011;9867;48.094;11.478;2023-08-20T02:40:43;6.53;;;4.00;;
19456;SDS011;9867;48.094;11.478;2023-08-20T02:43:12;7.80;;;4.03;;
19456;SDS011;9867;48.094;11.478;2023-08-20T02:45:40;7.77;;;4.17;;
19456;SDS011;9867;48.094;11.478;2023-08-20T02:48:09;8.33;;;3.90;;
19456;SDS011;9867;48.094;11.478;2023-08-20T02:50:38;8.60;;;4.10;;
19456;SDS011;9867;48.094;11.478;2023-08-20T02:53:07;8.87;;;4.20;;
19456;SDS011;9867;48.094;11.478;2023-08-20T02:55:35;10.10;;;4.20;;
19456;SDS011;9867;48.094;11.478;2023-08-20T02:58:04;7.57;;;3.73;;
19456;SDS011;9867;48.094;11.478;2023-08-20T03:00:34;7.13;;;3.90;;
19456;SDS011;9867;48.094;11.478;2023-08-20T03:03:03;8.73;;;4.23;;
19456;SDS011;9867;48.094;11.478;2023-08-20T03:05:37;9.07;;;4.00;;
19456;SDS011;9867;48.094;11.478;2023-08-20T03:08:05;8.63;;;4.17;;
19456;SDS011;9867;48.094;11.478;2023-08-20T03:10:35;8.00;;;3.80;;
19456;SDS011;9867;48.094;11.478;2023-08-20T03:13:06;5.60;;;3.63;;
19456;SDS011;9867;48.094;11.478;2023-08-20T03:15:34;5.73;;;4.07;;
19456;SDS011;9867;48.094;11.478;2023-08-20T03:18:02;10.30;;;3.77;;
19456;SDS011;9867;48.094;11.478;2023-08-20T03:20:30;8.57;;;4.30;;
19456;SDS011;9867;48.094;11.478;2023-08-20T03:22:58;6.57;;;3.80;;
19456;SDS011;9867;48.094;11.478;2023-08-20T03:25:27;4.43;;;3.97;;
19456;SDS011;9867;48.094;11.478;2023-08-20T03:27:56;5.20;;;4.07;;
19456;SDS011;9867;48.094;11.478;2023-08-20T03:30:24;5.67;;;3.80;;
19456;SDS011;9867;48.094;11.478;2023-08-20T03:32:52;8.50;;;4.30;;
19456;SDS011;9867;48.094;11.478;2023-08-20T03:35:20;7.10;;;4.30;;
19456;SDS011;9867;48.094;11.478;2023-08-20T03:37:48;6.40;;;4.17;;
19456;SDS011;9867;48.094;11.478;2023-08-20T03:40:16;5.60;;;4.00;;
19456;SDS011;9867;48.094;11.478;2023-08-20T03:42:45;6.17;;;4.03;;
19456;SDS011;9867;48.094;11.478;2023-08-20T03:45:16;6.90;;;4.00;;
19456;SDS011;9867;48.094;11.478;2023-08-20T03:47:44;7.77;;;4.57;;
19456;SDS011;9867;48.094;11.478;2023-08-20T03:50:13;8.60;;;4.20;;
19456;SDS011;9867;48.094;11.478;2023-08-20T03:52:42;6.87;;;3.77;;
19456;SDS011;9867;48.094;11.478;2023-08-20T03:55:10;7.03;;;4.20;;
19456;SDS011;9867;48.094;11.478;2023-08-20T03:57:38;6.63;;;4.20;;
19456;SDS011;9867;48.094;11.478;2023-08-20T04:00:06;7.13;;;4.10;;
19456;SDS011;9867;48.094;11.478;2023-08-20T04:02:42;5.07;;;4.17;;
19456;SDS011;9867;48.094;11.478;2023-08-20T04:05:10;5.23;;;4.07;;
19456;SDS011;9867;48.094;11.478;2023-08-20T04:07:38;7.93;;;3.77;;
19456;SDS011;9867;48.094;11.478;2023-08-20T04:10:07;6.03;;;4.23;;
19456;SDS011;9867;48.094;11.478;2023-08-20T04:12:36;6.43;;;4.00;;
19456;SDS011;9867;48.094;11.478;2023-08-20T04:15:04;4.90;;;3.80;;
19456;SDS011;9867;48.094;11.478;2023-08-20T04:17:33;10.20;;;4.00;;
19456;SDS011;9867;48.094;11.478;2023-08-20T04:20:03;10.50;;;4.37;;
19456;SDS011;9867;48.094;11.478;2023-08-20T04:22:36;6.47;;;4.20;;
19456;SDS011;9867;48.094;11.478;2023-08-20T04:25:05;6.07;;;3.60;;
19456;SDS011;9867;48.094;11.478;2023-08-20T04:27:35;5.40;;;3.90;;
19456;SDS011;9867;48.094;11.478;2023-08-20T04:30:04;7.33;;;4.17;;
19456;SDS011;9867;48.094;11.478;2023-08-20T04:32:33;6.10;;;3.50;;
19456;SDS011;9867;48.094;11.478;2023-08-20T04:35:03;7.33;;;4.37;;
19456;SDS011;9867;48.094;11.478;2023-08-20T04:37:32;8.37;;;4.10;;
19456;SDS011;9867;48.094;11.478;2023-08-20T04:40:01;5.53;;;3.90;;
19456;SDS011;9867;48.094;11.478;2023-08-20T04:42:31;7.83;;;4.07;;
19456;SDS011;9867;48.094;11.478;2023-08-20T04:44:59;7.47;;;3.57;;
19456;SDS011;9867;48.094;11.478;2023-08-20T04:47:28;6.07;;;3.80;;
19456;SDS011;9867;48.094;11.478;2023-08-20T04:49:57;7.63;;;3.80;;
19456;SDS011;9867;48.094;11.478;2023-08-20T04:52:26;8.70;;;4.13;;
19456;SDS011;9867;48.094;11.478;2023-08-20T04:54:54;6.43;;;3.77;;
19456;SDS011;9867;48.094;11.478;2023-08-20T04:57:23;6.13;;;4.00;;
19456;SDS011;9867;48.094;11.478;2023-08-20T04:59:51;6.00;;;3.70;;
19456;SDS011;9867;48.094;11.478;2023-08-20T05:02:34;7.03;;;3.90;;
19456;SDS011;9867;48.094;11.478;2023-08-20T05:05:04;5.43;;;4.00;;
19456;SDS011;9867;48.094;11.478;2023-08-20T05:07:34;7.77;;;3.90;;
19456;SDS011;9867;48.094;11.478;2023-08-20T05:10:02;7.60;;;4.17;;
19456;SDS011;9867;48.094;11.478;2023-08-20T05:12:30;6.80;;;4.03;;
19456;SDS011;9867;48.094;11.478;2023-08-20T05:14:58;4.83;;;3.63;;
19456;SDS011;9867;48.094;11.478;2023-08-20T05:17:26;7.27;;;3.70;;
19456;SDS011;9867;48.094;11.478;2023-08-20T05:19:56;6.13;;;3.87;;
19456;SDS011;9867;48.094;11.478;2023-08-20T05:22:24;6.17;;;4.10;;
19456;SDS011;9867;48.094;11.478;2023-08-20T05:24:53;5.57;;;4.17;;
19456;SDS011;9867;48.094;11.478;2023-08-20T05:27:21;5.70;;;3.87;;
19456;SDS011;9867;48.094;11.478;2023-08-20T05:29:50;8.60;;;4.33;;
19456;SDS011;9867;48.094;11.478;2023-08-20T05:32:19;8.57;;;4.17;;
19456;SDS011;9867;48.094;11.478;2023-08-20T05:34:47;5.73;;;4.00;;
19456;SDS011;9867;48.094;11.478;2023-08-20T05:37:15;6.93;;;4.17;;
19456;SDS011;9867;48.094;11.478;2023-08-20T05:39:44;6.10;;;4.20;;
19456;SDS011;9867;48.094;11.478;2023-08-20T05:42:14;8.27;;;4.10;;
19456;SDS011;9867;48.094;11.478;2023-08-20T05:44:49;9.50;;;4.00;;
19456;SDS011;9867;48.094;11.478;2023-08-20T05:47:22;8.07;;;4.10;;
19456;SDS011;9867;48.094;11.478;2023-08-20T05:49:50;8.27;;;3.93;;
19456;SDS011;9867;48.094;11.478;2023-08-20T05:52:18;6.17;;;4.00;;
19456;SDS011;9867;48.094;11.478;2023-08-20T05:54:46;6.37;;;3.80;;
19456;SDS011;9867;48.094;11.478;2023-08-20T05:57:16;5.33;;;3.80;;
19456;SDS011;9867;48.094;11.478;2023-08-20T05:59:44;9.47;;;4.17;;
19456;SDS011;9867;48.094;11.478;2023-08-20T06:02:15;7.00;;;3.90;;
19456;SDS011;9867;48.094;11.478;2023-08-20T06:04:44;8.23;;;3.97;;
19456;SDS011;9867;48.094;11.478;2023-08-20T06:07:12;7.83;;;3.80;;
19456;SDS011;9867;48.094;11.478;2023-08-20T06:09:43;6.43;;;3.83;;
19456;SDS011;9867;48.094;11.478;2023-08-20T06:12:11;8.03;;;3.90;;
19456;SDS011;9867;48.094;11.478;2023-08-20T06:14:40;7.47;;;4.50;;
19456;SDS011;9867;48.094;11.478;2023-08-20T06:17:09;4.90;;;3.53;;
19456;SDS011;9867;48.094;11.478;2023-08-20T06:19:37;6.73;;;4.00;;
19456;SDS011;9867;48.094;11.478;2023-08-20T06:22:05;10.70;;;4.27;;
19456;SDS011;9867;48.094;11.478;2023-08-20T06:24:33;7.73;;;3.83;;
19456;SDS011;9867;48.094;11.478;2023-08-20T06:27:01;6.77;;;3.80;;
19456;SDS011;9867;48.094;11.478;2023-08-20T06:29:29;5.90;;;3.80;;
19456;SDS011;9867;48.094;11.478;2023-08-20T06:31:59;4.97;;;3.80;;
19456;SDS011;9867;48.094;11.478;2023-08-20T06:34:27;9.17;;;4.40;;
19456;SDS011;9867;48.094;11.478;2023-08-20T06:36:55;6.00;;;4.20;;
19456;SDS011;9867;48.094;11.478;2023-08-20T06:39:23;5.03;;;3.70;;
19456;SDS011;9867;48.094;11.478;2023-08-20T06:41:53;5.53;;;3.43;;
19456;SDS011;9867;48.094;11.478;2023-08-20T06:44:24;6.73;;;3.57;;
19456;SDS011;9867;48.094;11.478;2023-08-20T06:46:52;6.07;;;4.00;;
19456;SDS011;9867;48.094;11.478;2023-08-20T06:49:21;6.93;;;4.20;;
19456;SDS011;9867;48.094;11.478;2023-08-20T06:51:49;8.47;;;3.80;;
19456;SDS011;9867;48.094;11.478;2023-08-20T06:54:17;5.70;;;3.93;;
19456;SDS011;9867;48.094;11.478;2023-08-20T06:56:46;8.87;;;3.83;;
19456;SDS011;9867;48.094;11.478;2023-08-20T06:59:16;9.00;;;3.60;;
19456;SDS011;9867;48.094;11.478;2023-08-20T07:01:45;5.73;;;3.87;;
19456;SDS011;9867;48.094;11.478;2023-08-20T07:04:13;6.13;;;4.33;;
19456;SDS011;9867;48.094;11.478;2023-08-20T07:06:43;7.73;;;3.90;;
19456;SDS011;9867;48.094;11.478;2023-08-20T07:09:11;9.03;;;4.13;;
19456;SDS011;9867;48.094;11.478;2023-08-20T07:11:39;7.33;;;4.10;;
19456;SDS011;9867;48.094;11.478;2023-08-20T07:14:07;5.13;;;3.97;;
19456;SDS011;9867;48.094;11.478;2023-08-20T07:16:35;9.07;;;3.97;;
19456;SDS011;9867;48.094;11.478;2023-08-20T07:19:03;6.47;;;3.97;;
19456;SDS011;9867;48.094;11.478;2023-08-20T07:21:31;7.50;;;3.33;;
19456;SDS011;9867;48.094;11.478;2023-08-20T07:24:01;6.20;;;4.07;;
19456;SDS011;9867;48.094;11.478;2023-08-20T07:26:29;7.90;;;3.77;;
19456;SDS011;9867;48.094;11.478;2023-08-20T07:28:58;7.33;;;3.60;;
19456;SDS011;9867;48.094;11.478;2023-08-20T07:31:26;7.37;;;3.80;;
19456;SDS011;9867;48.094;11.478;2023-08-20T07:33:56;7.97;;;3.97;;
19456;SDS011;9867;48.094;11.478;2023-08-20T07:36:30;8.17;;;4.03;;
19456;SDS011;9867;48.094;11.478;2023-08-20T07:38:59;7.07;;;3.67;;
19456;SDS011;9867;48.094;11.478;2023-08-20T07:41:30;4.20;;;3.33;;
19456;SDS011;9867;48.094;11.478;2023-08-20T07:43:58;8.63;;;3.47;;
19456;SDS011;9867;48.094;11.478;2023-08-20T07:46:26;4.77;;;3.60;;
19456;SDS011;9867;48.094;11.478;2023-08-20T07:48:54;9.20;;;4.13;;
19456;SDS011;9867;48.094;11.478;2023-08-20T07:51:22;7.53;;;3.73;;
19456;SDS011;9867;48.094;11.478;2023-08-20T07:53:50;6.00;;;3.80;;
19456;SDS011;9867;48.094;11.478;2023-08-20T07:56:18;5.50;;;3.77;;
19456;SDS011;9867;48.094;11.478;2023-08-20T07:58:48;9.63;;;3.93;;
19456;SDS011;9867;48.094;11.478;2023-08-20T08:01:18;5.00;;;3.40;;
19456;SDS011;9867;48.094;11.478;2023-08-20T08:03:46;8.33;;;3.77;;
19456;SDS011;9867;48.094;11.478;2023-08-20T08:06:15;4.33;;;3.40;;
19456;SDS011;9867;48.094;11.478;2023-08-20T08:08:43;5.73;;;3.60;;
19456;SDS011;9867;48.094;11.478;2023-08-20T08:11:11;5.00;;;3.40;;
19456;SDS011;9867;48.094;11.478;2023-08-20T08:13:39;4.90;;;3.63;;
19456;SDS011;9867;48.094;11.478;2023-08-20T08:16:09;7.67;;;3.90;;
19456;SDS011;9867;48.094;11.478;2023-08-20T08:18:37;6.10;;;3.80;;
19456;SDS011;9867;48.094;11.478;2023-08-20T08:21:05;6.50;;;3.80;;
19456;SDS011;9867;48.094;11.478;2023-08-20T08:23:33;5.30;;;3.63;;
19456;SDS011;9867;48.094;11.478;2023-08-20T08:26:01;5.90;;;3.47;;
19456;SDS011;9867;48.094;11.478;2023-08-20T08:28:28;10.50;;;4.10;;
19456;SDS011;9867;48.094;11.478;2023-08-20T08:30:56;5.47;;;3.70;;
19456;SDS011;9867;48.094;11.478;2023-08-20T08:33:26;11.13;;;4.10;;
19456;SDS011;9867;48.094;11.478;2023-08-20T08:35:54;5.00;;;3.30;;
19456;SDS011;9867;48.094;11.478;2023-08-20T08:38:22;4.47;;;3.70;;
19456;SDS011;9867;48.094;11.478;2023-08-20T08:40:53;6.30;;;3.40;;
19456;SDS011;9867;48.094;11.478;2023-08-20T08:43:22;4.10;;;3.20;;
19456;SDS011;9867;48.094;11.478;2023-08-20T08:45:51;4.43;;;3.40;;
19456;SDS011;9867;48.094;11.478;2023-08-20T08:48:21;5.50;;;3.80;;
19456;SDS011;9867;48.094;11.478;2023-08-20T08:50:51;6.40;;;3.90;;
19456;SDS011;9867;48.094;11.478;2023-08-20T08:53:19;10.53;;;3.90;;
19456;SDS011;9867;48.094;11.478;2023-08-20T08:55:49;5.60;;;3.37;;
19456;SDS011;9867;48.094;11.478;2023-08-20T08:58:18;6.40;;;4.00;;
19456;SDS011;9867;48.094;11.478;2023-08-20T09:00:45;7.80;;;3.83;;
19456;SDS011;9867;48.094;11.478;2023-08-20T09:03:13;6.87;;;4.03;;
19456;SDS011;9867;48.094;11.478;2023-08-20T09:05:47;7.17;;;3.70;;
19456;SDS011;9867;48.094;11.478;2023-08-20T09:08:21;5.47;;;3.50;;
19456;SDS011;9867;48.094;11.478;2023-08-20T09:10:50;5.57;;;3.37;;
19456;SDS011;9867;48.094;11.478;2023-08-20T09:13:21;6.27;;;3.03;;
19456;SDS011;9867;48.094;11.478;2023-08-20T09:15:50;7.67;;;3.20;;
19456;SDS011;9867;48.094;11.478;2023-08-20T09:18:19;3.53;;;2.70;;
19456;SDS011;9867;48.094;11.478;2023-08-20T09:20:48;5.47;;;3.57;;
19456;SDS011;9867;48.094;11.478;2023-08-20T09:23:16;3.60;;;3.10;;
19456;SDS011;9867;48.094;11.478;2023-08-20T09:25:46;3.77;;;3.10;;
19456;SDS011;9867;48.094;11.478;2023-08-20T09:28:14;3.80;;;3.10;;
19456;SDS011;9867;48.094;11.478;2023-08-20T09:30:54;4.73;;;3.40;;
19456;SDS011;9867;48.094;11.478;2023-08-20T09:33:22;5.47;;;3.20;;
19456;SDS011;9867;48.094;11.478;2023-08-20T09:35:49;4.53;;;3.30;;
19456;SDS011;9867;48.094;11.478;2023-08-20T09:38:18;6.27;;;3.30;;
19456;SDS011;9867;48.094;11.478;2023-08-20T09:40:49;4.37;;;3.40;;
19456;SDS011;9867;48.094;11.478;2023-08-20T09:43:23;5.63;;;3.67;;
19456;SDS011;9867;48.094;11.478;2023-08-20T09:45:54;5.27;;;3.53;;
19456;SDS011;9867;48.094;11.478;2023-08-20T09:48:24;5.20;;;3.60;;
19456;SDS011;9867;48.094;11.478;2023-08-20T09:50:56;3.67;;;3.13;;
19456;SDS011;9867;48.094;11.478;2023-08-20T09:53:30;4.87;;;3.17;;
19456;SDS011;9867;48.094;11.478;2023-08-20T09:56:06;5.43;;;3.70;;
19456;SDS011;9867;48.094;11.478;2023-08-20T09:58:38;3.70;;;3.23;;
19456;SDS011;9867;48.094;11.478;2023-08-20T10:01:07;3.97;;;3.23;;
19456;SDS011;9867;48.094;11.478;2023-08-20T10:03:35;5.47;;;3.27;;
19456;SDS011;9867;48.094;11.478;2023-08-20T10:06:04;5.80;;;3.30;;
19456;SDS011;9867;48.094;11.478;2023-08-20T10:08:36;4.47;;;3.30;;
19456;SDS011;9867;48.094;11.478;2023-08-20T10:11:06;5.77;;;3.17;;
19456;SDS011;9867;48.094;11.478;2023-08-20T10:13:34;4.13;;;3.10;;
19456;SDS011;9867;48.094;11.478;2023-08-20T10:16:04;3.93;;;2.90;;
19456;SDS011;9867;48.094;11.478;2023-08-20T10:18:33;5.40;;;3.50;;
19456;SDS011;9867;48.094;11.478;2023-08-20T10:21:05;4.10;;;3.00;;
19456;SDS011;9867;48.094;11.478;2023-08-20T10:23:34;5.23;;;3.00;;
19456;SDS011;9867;48.094;11.478;2023-08-20T10:26:09;5.53;;;2.73;;
19456;SDS011;9867;48.094;11.478;2023-08-20T10:28:39;3.73;;;3.20;;
19456;SDS011;9867;48.094;11.478;2023-08-20T10:31:08;7.20;;;2.97;;
19456;SDS011;9867;48.094;11.478;2023-08-20T10:33:48;5.77;;;3.40;;
19456;SDS011;9867;48.094;11.478;2023-08-20T10:36:18;5.87;;;3.30;;
19456;SDS011;9867;48.094;11.478;2023-08-20T10:38:49;5.20;;;3.13;;
19456;SDS011;9867;48.094;11.478;2023-08-20T10:41:25;3.97;;;3.30;;
19456;SDS011;9867;48.094;11.478;2023-08-20T10:43:56;4.13;;;2.90;;
19456;SDS011;9867;48.094;11.478;2023-08-20T10:46:26;6.13;;;3.40;;
19456;SDS011;9867;48.094;11.478;2023-08-20T10:48:57;5.53;;;3.20;;
19456;SDS011;9867;48.094;11.478;2023-08-20T10:51:28;6.10;;;3.20;;
19456;SDS011;9867;48.094;11.478;2023-08-20T10:54:05;3.27;;;2.97;;
19456;SDS011;9867;48.094;11.478;2023-08-20T10:56:40;5.10;;;3.33;;
19456;SDS011;9867;48.094;11.478;2023-08-20T10:59:13;4.37;;;3.20;;
19456;SDS011;9867;48.094;11.478;2023-08-20T11:01:43;3.73;;;2.90;;
19456;SDS011;9867;48.094;11.478;2023-08-20T11:04:12;3.57;;;2.93;;
19456;SDS011;9867;48.094;11.478;2023-08-20T11:06:41;4.13;;;3.30;;
19456;SDS011;9867;48.094;11.478;2023-08-20T11:09:10;7.07;;;3.13;;
19456;SDS011;9867;48.094;11.478;2023-08-20T11:11:40;3.47;;;3.17;;
19456;SDS011;9867;48.094;11.478;2023-08-20T11:14:12;3.97;;;3.57;;
19456;SDS011;9867;48.094;11.478;2023-08-20T11:16:41;6.03;;;3.23;;
19456;SDS011;9867;48.094;11.478;2023-08-20T11:19:10;5.10;;;3.30;;
19456;SDS011;9867;48.094;11.478;2023-08-20T11:21:39;4.40;;;2.70;;
19456;SDS011;9867;48.094;11.478;2023-08-20T11:24:08;7.73;;;3.20;;
19456;SDS011;9867;48.094;11.478;2023-08-20T11:26:38;7.47;;;3.47;;
19456;SDS011;9867;48.094;11.478;2023-08-20T11:29:08;3.90;;;3.40;;
19456;SDS011;9867;48.094;11.478;2023-08-20T11:31:38;4.63;;;3.10;;
19456;SDS011;9867;48.094;11.478;2023-08-20T11:34:07;5.03;;;3.07;;
19456;SDS011;9867;48.094;11.478;2023-08-20T11:36:35;5.20;;;2.97;;
19456;SDS011;9867;48.094;11.478;2023-08-20T11:39:06;5.63;;;3.20;;
19456;SDS011;9867;48.094;11.478;2023-08-20T11:41:35;4.27;;;3.27;;
19456;SDS011;9867;48.094;11.478;2023-08-20T11:44:05;7.37;;;3.10;;
19456;SDS011;9867;48.094;11.478;2023-08-20T11:46:41;4.37;;;2.93;;
19456;SDS011;9867;48.094;11.478;2023-08-20T11:49:10;5.27;;;3.20;;
19456;SDS011;9867;48.094;11.478;2023-08-20T11:51:40;5.30;;;3.20;;
19456;SDS011;9867;48.094;11.478;2023-08-20T11:54:10;4.63;;;3.20;;
19456;SDS011;9867;48.094;11.478;2023-08-20T11:56:44;4.67;;;3.07;;
19456;SDS011;9867;48.094;11.478;2023-08-20T11:59:15;4.30;;;2.93;;
19456;SDS011;9867;48.094;11.478;2023-08-20T12:01:47;4.93;;;3.27;;
19456;SDS011;9867;48.094;11.478;2023-08-20T12:04:19;6.07;;;3.30;;
19456;SDS011;9867;48.094;11.478;2023-08-20T12:07:00;3.33;;;2.80;;
19456;SDS011;9867;48.094;11.478;2023-08-20T12:09:31;4.80;;;2.83;;
19456;SDS011;9867;48.094;11.478;2023-08-20T12:12:01;5.73;;;3.57;;
19456;SDS011;9867;48.094;11.478;2023-08-20T12:14:30;5.13;;;2.80;;
19456;SDS011;9867;48.094;11.478;2023-08-20T12:16:58;4.57;;;2.80;;
19456;SDS011;9867;48.094;11.478;2023-08-20T12:19:26;6.80;;;2.97;;
19456;SDS011;9867;48.094;11.478;2023-08-20T12:21:54;4.77;;;3.00;;
19456;SDS011;9867;48.094;11.478;2023-08-20T12:24:22;4.80;;;2.80;;
19456;SDS011;9867;48.094;11.478;2023-08-20T12:26:52;4.93;;;2.87;;
19456;SDS011;9867;48.094;11.478;2023-08-20T12:29:20;5.57;;;2.80;;
19456;SDS011;9867;48.094;11.478;2023-08-20T12:31:49;3.67;;;2.90;;
19456;SDS011;9867;48.094;11.478;2023-08-20T12:34:17;6.37;;;3.20;;
19456;SDS011;9867;48.094;11.478;2023-08-20T12:36:48;4.53;;;2.73;;
19456;SDS011;9867;48.094;11.478;2023-08-20T12:39:16;5.73;;;2.80;;
19456;SDS011;9867;48.094;11.478;2023-08-20T12:41:44;6.23;;;3.07;;
19456;SDS011;9867;48.094;11.478;2023-08-20T12:44:12;3.83;;;3.10;;
19456;SDS011;9867;48.094;11.478;2023-08-20T12:46:40;3.80;;;2.80;;
19456;SDS011;9867;48.094;11.478;2023-08-20T12:49:10;3.83;;;2.80;;
19456;SDS011;9867;48.094;11.478;2023-08-20T12:51:38;4.47;;;2.80;;
19456;SDS011;9867;48.094;11.478;2023-08-20T12:54:06;5.63;;;2.90;;
19456;SDS011;9867;48.094;11.478;2023-08-20T12:56:34;4.83;;;2.73;;
19456;SDS011;9867;48.094;11.478;2023-08-20T12:59:03;4.47;;;2.57;;
19456;SDS011;9867;48.094;11.478;2023-08-20T13:01:30;3.43;;;2.80;;
19456;SDS011;9867;48.094;11.478;2023-08-20T13:03:59;4.57;;;2.70;;
19456;SDS011;9867;48.094;11.478;2023-08-20T13:06:29;3.67;;;2.70;;
19456;SDS011;9867;48.094;11.478;2023-08-20T13:08:57;4.27;;;2.90;;
19456;SDS011;9867;48.094;11.478;2023-08-20T13:11:26;5.57;;;2.90;;
19456;SDS011;9867;48.094;11.478;2023-08-20T13:13:57;3.83;;;2.90;;
19456;SDS011;9867;48.094;11.478;2023-08-20T13:16:26;5.60;;;2.83;;
19456;SDS011;9867;48.094;11.478;2023-08-20T13:18:56;5.93;;;2.73;;
19456;SDS011;9867;48.094;11.478;2023-08-20T13:21:24;3.20;;;2.70;;
19456;SDS011;9867;48.094;11.478;2023-08-20T13:23:53;4.83;;;2.77;;
19456;SDS011;9867;48.094;11.478;2023-08-20T13:26:21;4.87;;;2.53;;
19456;SDS011;9867;48.094;11.478;2023-08-20T13:28:49;3.47;;;2.87;;
19456;SDS011;9867;48.094;11.478;2023-08-20T13:31:17;5.90;;;2.90;;
19456;SDS011;9867;48.094;11.478;2023-08-20T13:33:45;5.10;;;2.83;;
19456;SDS011;9867;48.094;11.478;2023-08-20T13:36:13;3.67;;;2.80;;
19456;SDS011;9867;48.094;11.478;2023-08-20T13:38:43;3.10;;;2.70;;
19456;SDS011;9867;48.094;11.478;2023-08-20T13:41:12;4.77;;;2.93;;
19456;SDS011;9867;48.094;11.478;2023-08-20T13:43:40;4.10;;;3.00;;
19456;SDS011;9867;48.094;11.478;2023-08-20T13:46:08;5.40;;;2.90;;
19456;SDS011;9867;48.094;11.478;2023-08-20T13:48:37;4.40;;;2.87;;
19456;SDS011;9867;48.094;11.478;2023-08-20T13:51:05;5.67;;;2.97;;
19456;SDS011;9867;48.094;11.478;2023-08-20T13:53:33;5.63;;;3.33;;
19456;SDS011;9867;48.094;11.478;2023-08-20T13:56:01;3.10;;;2.67;;
19456;SDS011;9867;48.094;11.478;2023-08-20T13:58:30;5.63;;;2.87;;
19456;SDS011;9867;48.094;11.478;2023-08-20T14:00:58;4.37;;;3.37;;
19456;SDS011;9867;48.094;11.478;2023-08-20T14:03:28;8.17;;;3.17;;
19456;SDS011;9867;48.094;11.478;2023-08-20T14:05:56;4.33;;;3.03;;
19456;SDS011;9867;48.094;11.478;2023-08-20T14:08:24;5.13;;;3.00;;
19456;SDS011;9867;48.094;11.478;2023-08-20T14:10:52;3.80;;;2.90;;
19456;SDS011;9867;48.094;11.478;2023-08-20T14:13:21;4.17;;;2.60;;
19456;SDS011;9867;48.094;11.478;2023-08-20T14:15:50;4.17;;;3.10;;
19456;SDS011;9867;48.094;11.478;2023-08-20T14:18:18;5.90;;;3.40;;
19456;SDS011;9867;48.094;11.478;2023-08-20T14:20:47;5.47;;;3.00;;
19456;SDS011;9867;48.094;11.478;2023-08-20T14:23:15;6.80;;;2.70;;
19456;SDS011;9867;48.094;11.478;2023-08-20T14:25:44;6.60;;;2.70;;
19456;SDS011;9867;48.094;11.478;2023-08-20T14:28:12;5.03;;;3.07;;
19456;SDS011;9867;48.094;11.478;2023-08-20T14:30:40;4.57;;;2.70;;
19456;SDS011;9867;48.094;11.478;2023-08-20T14:33:10;4.87;;;3.13;;
19456;SDS011;9867;48.094;11.478;2023-08-20T14:35:39;4.20;;;3.17;;
19456;SDS011;9867;48.094;11.478;2023-08-20T14:38:07;4.97;;;3.23;;
19456;SDS011;9867;48.094;11.478;2023-08-20T14:40:36;4.43;;;2.70;;
19456;SDS011;9867;48.094;11.478;2023-08-20T14:43:05;5.90;;;3.27;;
19456;SDS011;9867;48.094;11.478;2023-08-20T14:45:33;5.20;;;3.17;;
19456;SDS011;9867;48.094;11.478;2023-08-20T14:48:02;6.23;;;3.10;;
19456;SDS011;9867;48.094;11.478;2023-08-20T14:50:32;6.30;;;3.70;;
19456;SDS011;9867;48.094;11.478;2023-08-20T14:53:00;6.77;;;2.90;;
19456;SDS011;9867;48.094;11.478;2023-08-20T14:55:29;4.40;;;2.80;;
19456;SDS011;9867;48.094;11.478;2023-08-20T14:57:57;5.90;;;3.00;;
19456;SDS011;9867;48.094;11.478;2023-08-20T15:00:25;5.40;;;3.10;;
19456;SDS011;9867;48.094;11.478;2023-08-20T15:02:53;4.43;;;2.97;;